sensor_id;sensor_type;location;lat;lon;timestamp;temperature;humidity
76789;DHT22;65740;52.464;13.446;2023-11-21T00:01:54;18.40;51.10
76789;DHT22;65740;52.464;13.446;2023-11-21T00:04:20;18.40;51.10
76789;DHT22;65740;52.464;13.446;2023-11-21T00:06:45;18.40;51.10
76789;DHT22;65740;52.464;13.446;2023-11-21T00:09:13;18.40;51.10
76789;DHT22;65740;52.464;13.446;2023-11-21T00:11:41;18.40;51.10
76789;DHT22;65740;52.464;13.446;2023-11-21T00:14:06;18.30;51.00
76789;DHT22;65740;52.464;13.446;2023-11-21T00:16:33;18.30;50.90
76789;DHT22;65740;52.464;13.446;2023-11-21T00:18:59;18.40;51.10
76789;DHT22;65740;52.464;13.446;2023-11-21T00:21:25;18.30;51.00
76789;DHT22;65740;52.464;13.446;2023-11-21T00:23:50;18.40;51.10
76789;DHT22;65740;52.464;13.446;2023-11-21T00:26:16;18.30;51.00
76789;DHT22;65740;52.464;13.446;2023-11-21T00:28:42;18.30;51.00
76789;DHT22;65740;52.464;13.446;2023-11-21T00:31:08;18.30;51.00
76789;DHT22;65740;52.464;13.446;2023-11-21T00:33:33;18.30;51.00
76789;DHT22;65740;52.464;13.446;2023-11-21T00:35:59;18.30;51.00
76789;DHT22;65740;52.464;13.446;2023-11-21T00:38:26;18.30;51.00
76789;DHT22;65740;52.464;13.446;2023-11-21T00:40:52;18.20;51.00
76789;DHT22;65740;52.464;13.446;2023-11-21T00:43:22;18.30;51.00
76789;DHT22;65740;52.464;13.446;2023-11-21T00:45:48;18.20;50.90
76789;DHT22;65740;52.464;13.446;2023-11-21T00:48:14;18.20;51.10
76789;DHT22;65740;52.464;13.446;2023-11-21T00:50:40;18.20;50.90
76789;DHT22;65740;52.464;13.446;2023-11-21T00:53:06;18.20;50.90
76789;DHT22;65740;52.464;13.446;2023-11-21T00:55:33;18.20;50.90
76789;DHT22;65740;52.464;13.446;2023-11-21T00:57:59;18.20;50.90
76789;DHT22;65740;52.464;13.446;2023-11-21T01:00:25;18.40;51.00
76789;DHT22;65740;52.464;13.446;2023-11-21T01:02:51;18.20;50.80
76789;DHT22;65740;52.464;13.446;2023-11-21T01:05:16;18.20;50.80
76789;DHT22;65740;52.464;13.446;2023-11-21T01:07:42;18.20;50.80
76789;DHT22;65740;52.464;13.446;2023-11-21T01:10:08;18.30;50.80
76789;DHT22;65740;52.464;13.446;2023-11-21T01:12:36;18.20;50.70
76789;DHT22;65740;52.464;13.446;2023-11-21T01:15:04;18.20;50.70
76789;DHT22;65740;52.464;13.446;2023-11-21T01:17:32;18.20;50.70
76789;DHT22;65740;52.464;13.446;2023-11-21T01:20:00;18.20;50.70
76789;DHT22;65740;52.464;13.446;2023-11-21T01:22:25;18.20;50.60
76789;DHT22;65740;52.464;13.446;2023-11-21T01:24:53;18.30;50.70
76789;DHT22;65740;52.464;13.446;2023-11-21T01:27:18;18.30;50.70
76789;DHT22;65740;52.464;13.446;2023-11-21T01:29:44;18.20;50.50
76789;DHT22;65740;52.464;13.446;2023-11-21T01:32:10;18.30;50.60
76789;DHT22;65740;52.464;13.446;2023-11-21T01:34:36;18.20;50.60
76789;DHT22;65740;52.464;13.446;2023-11-21T01:37:02;18.30;50.60
76789;DHT22;65740;52.464;13.446;2023-11-21T01:39:30;18.30;50.60
76789;DHT22;65740;52.464;13.446;2023-11-21T01:41:56;18.20;50.50
76789;DHT22;65740;52.464;13.446;2023-11-21T01:44:24;18.20;50.50
76789;DHT22;65740;52.464;13.446;2023-11-21T01:46:50;18.20;50.50
76789;DHT22;65740;52.464;13.446;2023-11-21T01:49:17;18.20;50.50
76789;DHT22;65740;52.464;13.446;2023-11-21T01:51:47;18.20;50.50
76789;DHT22;65740;52.464;13.446;2023-11-21T01:54:15;18.20;50.60
76789;DHT22;65740;52.464;13.446;2023-11-21T01:56:43;18.20;50.60
76789;DHT22;65740;52.464;13.446;2023-11-21T01:59:12;18.20;51.30
76789;DHT22;65740;52.464;13.446;2023-11-21T02:01:39;18.20;50.60
76789;DHT22;65740;52.464;13.446;2023-11-21T02:04:05;18.10;50.50
76789;DHT22;65740;52.464;13.446;2023-11-21T02:06:32;18.10;50.50
76789;DHT22;65740;52.464;13.446;2023-11-21T02:08:59;18.10;50.50
76789;DHT22;65740;52.464;13.446;2023-11-21T02:11:25;18.10;50.50
76789;DHT22;65740;52.464;13.446;2023-11-21T02:13:51;18.10;50.50
76789;DHT22;65740;52.464;13.446;2023-11-21T02:16:19;18.10;50.50
76789;DHT22;65740;52.464;13.446;2023-11-21T02:18:47;18.10;50.50
76789;DHT22;65740;52.464;13.446;2023-11-21T02:21:14;18.10;50.50
76789;DHT22;65740;52.464;13.446;2023-11-21T02:23:40;18.10;50.50
76789;DHT22;65740;52.464;13.446;2023-11-21T02:26:10;18.10;50.50
76789;DHT22;65740;52.464;13.446;2023-11-21T02:28:36;18.10;50.50
76789;DHT22;65740;52.464;13.446;2023-11-21T02:31:02;18.10;50.50
76789;DHT22;65740;52.464;13.446;2023-11-21T02:33:30;18.00;50.40
76789;DHT22;65740;52.464;13.446;2023-11-21T02:35:59;18.00;50.40
76789;DHT22;65740;52.464;13.446;2023-11-21T02:38:25;18.00;50.40
76789;DHT22;65740;52.464;13.446;2023-11-21T02:40:50;18.10;50.40
76789;DHT22;65740;52.464;13.446;2023-11-21T02:43:16;18.00;50.40
76789;DHT22;65740;52.464;13.446;2023-11-21T02:45:42;18.00;50.30
76789;DHT22;65740;52.464;13.446;2023-11-21T02:48:07;18.10;50.30
76789;DHT22;65740;52.464;13.446;2023-11-21T02:50:33;18.10;50.30
76789;DHT22;65740;52.464;13.446;2023-11-21T02:53:00;18.10;50.30
76789;DHT22;65740;52.464;13.446;2023-11-21T02:55:27;18.10;50.20
76789;DHT22;65740;52.464;13.446;2023-11-21T02:57:53;18.10;50.80
76789;DHT22;65740;52.464;13.446;2023-11-21T03:00:19;18.10;50.10
76789;DHT22;65740;52.464;13.446;2023-11-21T03:02:45;18.10;50.10
76789;DHT22;65740;52.464;13.446;2023-11-21T03:05:13;18.10;50.10
76789;DHT22;65740;52.464;13.446;2023-11-21T03:07:39;18.10;50.10
76789;DHT22;65740;52.464;13.446;2023-11-21T03:10:06;18.10;50.00
76789;DHT22;65740;52.464;13.446;2023-11-21T03:12:32;18.10;50.00
76789;DHT22;65740;52.464;13.446;2023-11-21T03:14:58;18.10;50.00
76789;DHT22;65740;52.464;13.446;2023-11-21T03:17:23;18.10;50.00
76789;DHT22;65740;52.464;13.446;2023-11-21T03:19:49;18.10;49.90
76789;DHT22;65740;52.464;13.446;2023-11-21T03:22:15;18.10;49.90
76789;DHT22;65740;52.464;13.446;2023-11-21T03:24:41;18.10;49.90
76789;DHT22;65740;52.464;13.446;2023-11-21T03:27:06;18.10;50.00
76789;DHT22;65740;52.464;13.446;2023-11-21T03:29:33;18.10;50.00
76789;DHT22;65740;52.464;13.446;2023-11-21T03:31:58;18.10;50.00
76789;DHT22;65740;52.464;13.446;2023-11-21T03:34:26;18.00;49.90
76789;DHT22;65740;52.464;13.446;2023-11-21T03:36:51;18.00;50.00
76789;DHT22;65740;52.464;13.446;2023-11-21T03:39:19;18.00;50.00
76789;DHT22;65740;52.464;13.446;2023-11-21T03:41:44;18.00;50.00
76789;DHT22;65740;52.464;13.446;2023-11-21T03:44:10;18.00;50.00
76789;DHT22;65740;52.464;13.446;2023-11-21T03:46:36;18.00;50.60
76789;DHT22;65740;52.464;13.446;2023-11-21T03:49:01;18.00;49.90
76789;DHT22;65740;52.464;13.446;2023-11-21T03:51:27;18.00;49.90
76789;DHT22;65740;52.464;13.446;2023-11-21T03:53:52;17.90;49.80
76789;DHT22;65740;52.464;13.446;2023-11-21T03:56:19;18.00;49.90
76789;DHT22;65740;52.464;13.446;2023-11-21T03:58:47;17.90;49.80
76789;DHT22;65740;52.464;13.446;2023-11-21T04:01:21;17.90;49.80
76789;DHT22;65740;52.464;13.446;2023-11-21T04:03:50;17.90;50.50
76789;DHT22;65740;52.464;13.446;2023-11-21T04:06:16;18.00;49.90
76789;DHT22;65740;52.464;13.446;2023-11-21T04:08:45;17.90;49.80
76789;DHT22;65740;52.464;13.446;2023-11-21T04:11:11;17.90;49.80
76789;DHT22;65740;52.464;13.446;2023-11-21T04:13:38;17.90;49.80
76789;DHT22;65740;52.464;13.446;2023-11-21T04:16:06;17.90;49.80
76789;DHT22;65740;52.464;13.446;2023-11-21T04:18:32;17.90;49.80
76789;DHT22;65740;52.464;13.446;2023-11-21T04:20:59;17.90;49.80
76789;DHT22;65740;52.464;13.446;2023-11-21T04:23:24;17.90;49.70
76789;DHT22;65740;52.464;13.446;2023-11-21T04:25:50;17.90;49.60
76789;DHT22;65740;52.464;13.446;2023-11-21T04:28:16;17.90;49.60
76789;DHT22;65740;52.464;13.446;2023-11-21T04:30:42;17.90;49.50
76789;DHT22;65740;52.464;13.446;2023-11-21T04:33:07;17.90;49.40
76789;DHT22;65740;52.464;13.446;2023-11-21T04:35:33;18.00;49.40
76789;DHT22;65740;52.464;13.446;2023-11-21T04:37:58;18.00;49.40
76789;DHT22;65740;52.464;13.446;2023-11-21T04:40:25;18.00;49.30
76789;DHT22;65740;52.464;13.446;2023-11-21T04:42:52;18.00;49.30
76789;DHT22;65740;52.464;13.446;2023-11-21T04:45:18;17.90;49.20
76789;DHT22;65740;52.464;13.446;2023-11-21T04:47:43;18.00;49.40
76789;DHT22;65740;52.464;13.446;2023-11-21T04:50:09;17.90;49.30
76789;DHT22;65740;52.464;13.446;2023-11-21T04:52:35;18.00;49.30
76789;DHT22;65740;52.464;13.446;2023-11-21T04:55:00;17.90;49.20
76789;DHT22;65740;52.464;13.446;2023-11-21T04:57:27;18.00;49.30
76789;DHT22;65740;52.464;13.446;2023-11-21T04:59:54;18.00;49.30
76789;DHT22;65740;52.464;13.446;2023-11-21T05:02:19;18.00;49.30
76789;DHT22;65740;52.464;13.446;2023-11-21T05:04:47;17.90;49.50
76789;DHT22;65740;52.464;13.446;2023-11-21T05:07:12;17.90;49.20
76789;DHT22;65740;52.464;13.446;2023-11-21T05:09:42;17.90;49.20
76789;DHT22;65740;52.464;13.446;2023-11-21T05:12:09;17.90;49.20
76789;DHT22;65740;52.464;13.446;2023-11-21T05:14:35;17.90;49.20
76789;DHT22;65740;52.464;13.446;2023-11-21T05:17:01;17.90;49.20
76789;DHT22;65740;52.464;13.446;2023-11-21T05:19:26;17.80;49.20
76789;DHT22;65740;52.464;13.446;2023-11-21T05:21:52;17.80;49.20
76789;DHT22;65740;52.464;13.446;2023-11-21T05:24:18;17.80;49.20
76789;DHT22;65740;52.464;13.446;2023-11-21T05:26:43;17.80;49.20
76789;DHT22;65740;52.464;13.446;2023-11-21T05:29:09;17.80;49.20
76789;DHT22;65740;52.464;13.446;2023-11-21T05:31:36;17.80;49.20
76789;DHT22;65740;52.464;13.446;2023-11-21T05:34:03;17.80;49.20
76789;DHT22;65740;52.464;13.446;2023-11-21T05:36:28;17.70;49.80
76789;DHT22;65740;52.464;13.446;2023-11-21T05:38:54;17.70;49.10
76789;DHT22;65740;52.464;13.446;2023-11-21T05:41:19;17.70;49.10
76789;DHT22;65740;52.464;13.446;2023-11-21T05:43:45;17.70;49.10
76789;DHT22;65740;52.464;13.446;2023-11-21T05:46:11;17.70;49.10
76789;DHT22;65740;52.464;13.446;2023-11-21T05:48:36;17.70;49.10
76789;DHT22;65740;52.464;13.446;2023-11-21T05:51:06;17.70;49.10
76789;DHT22;65740;52.464;13.446;2023-11-21T05:53:32;17.70;49.20
76789;DHT22;65740;52.464;13.446;2023-11-21T05:55:57;17.70;49.10
76789;DHT22;65740;52.464;13.446;2023-11-21T05:58:23;17.70;49.10
76789;DHT22;65740;52.464;13.446;2023-11-21T06:00:49;17.80;49.20
76789;DHT22;65740;52.464;13.446;2023-11-21T06:03:14;17.80;49.10
76789;DHT22;65740;52.464;13.446;2023-11-21T06:05:40;17.80;49.00
76789;DHT22;65740;52.464;13.446;2023-11-21T06:10:36;17.90;48.80
76789;DHT22;65740;52.464;13.446;2023-11-21T06:13:01;17.90;48.70
76789;DHT22;65740;52.464;13.446;2023-11-21T06:15:29;17.90;48.70
76789;DHT22;65740;52.464;13.446;2023-11-21T06:17:55;17.90;48.60
76789;DHT22;65740;52.464;13.446;2023-11-21T06:20:22;17.90;48.60
76789;DHT22;65740;52.464;13.446;2023-11-21T06:22:50;17.90;48.50
76789;DHT22;65740;52.464;13.446;2023-11-21T06:25:16;17.90;48.50
76789;DHT22;65740;52.464;13.446;2023-11-21T06:27:44;17.90;49.10
76789;DHT22;65740;52.464;13.446;2023-11-21T06:30:11;17.90;48.40
76789;DHT22;65740;52.464;13.446;2023-11-21T06:32:38;17.90;48.50
76789;DHT22;65740;52.464;13.446;2023-11-21T06:35:05;17.90;48.40
76789;DHT22;65740;52.464;13.446;2023-11-21T06:37:32;17.90;48.40
76789;DHT22;65740;52.464;13.446;2023-11-21T06:39:58;17.90;48.40
76789;DHT22;65740;52.464;13.446;2023-11-21T06:42:25;17.80;48.40
76789;DHT22;65740;52.464;13.446;2023-11-21T06:44:51;17.80;48.40
76789;DHT22;65740;52.464;13.446;2023-11-21T06:47:22;17.80;49.10
76789;DHT22;65740;52.464;13.446;2023-11-21T06:49:50;17.80;48.40
76789;DHT22;65740;52.464;13.446;2023-11-21T06:52:16;17.80;48.40
76789;DHT22;65740;52.464;13.446;2023-11-21T06:54:41;17.80;48.40
76789;DHT22;65740;52.464;13.446;2023-11-21T06:57:07;17.80;48.40
76789;DHT22;65740;52.464;13.446;2023-11-21T06:59:33;17.80;48.50
76789;DHT22;65740;52.464;13.446;2023-11-21T07:01:59;17.70;48.40
76789;DHT22;65740;52.464;13.446;2023-11-21T07:04:25;17.70;48.40
76789;DHT22;65740;52.464;13.446;2023-11-21T07:06:54;17.70;49.10
76789;DHT22;65740;52.464;13.446;2023-11-21T07:09:20;17.70;48.40
76789;DHT22;65740;52.464;13.446;2023-11-21T07:11:49;17.70;48.50
76789;DHT22;65740;52.464;13.446;2023-11-21T07:14:15;17.60;48.50
76789;DHT22;65740;52.464;13.446;2023-11-21T07:16:42;17.60;48.50
76789;DHT22;65740;52.464;13.446;2023-11-21T07:19:08;17.60;48.60
76789;DHT22;65740;52.464;13.446;2023-11-21T07:21:34;17.60;48.60
76789;DHT22;65740;52.464;13.446;2023-11-21T07:24:00;17.60;48.40
76789;DHT22;65740;52.464;13.446;2023-11-21T07:26:32;17.60;48.50
76789;DHT22;65740;52.464;13.446;2023-11-21T07:29:02;17.60;48.40
76789;DHT22;65740;52.464;13.446;2023-11-21T07:31:28;17.80;48.50
76789;DHT22;65740;52.464;13.446;2023-11-21T07:33:54;17.70;48.60
76789;DHT22;65740;52.464;13.446;2023-11-21T07:36:23;17.70;48.50
76789;DHT22;65740;52.464;13.446;2023-11-21T07:38:49;17.80;48.50
76789;DHT22;65740;52.464;13.446;2023-11-21T07:41:15;17.80;48.40
76789;DHT22;65740;52.464;13.446;2023-11-21T07:43:47;17.80;48.40
76789;DHT22;65740;52.464;13.446;2023-11-21T07:46:13;17.80;48.40
76789;DHT22;65740;52.464;13.446;2023-11-21T07:48:40;17.90;48.40
76789;DHT22;65740;52.464;13.446;2023-11-21T07:51:07;17.90;48.30
76789;DHT22;65740;52.464;13.446;2023-11-21T07:53:34;18.10;48.10
76789;DHT22;65740;52.464;13.446;2023-11-21T07:56:03;18.20;47.80
76789;DHT22;65740;52.464;13.446;2023-11-21T07:58:29;18.40;47.40
76789;DHT22;65740;52.464;13.446;2023-11-21T08:00:55;18.60;47.20
76789;DHT22;65740;52.464;13.446;2023-11-21T08:03:20;18.70;46.90
76789;DHT22;65740;52.464;13.446;2023-11-21T08:05:46;18.70;46.70
76789;DHT22;65740;52.464;13.446;2023-11-21T08:08:12;18.80;46.50
76789;DHT22;65740;52.464;13.446;2023-11-21T08:10:38;18.80;46.40
76789;DHT22;65740;52.464;13.446;2023-11-21T08:13:07;18.80;46.40
76789;DHT22;65740;52.464;13.446;2023-11-21T08:15:34;18.80;46.40
76789;DHT22;65740;52.464;13.446;2023-11-21T08:18:02;18.80;46.40
76789;DHT22;65740;52.464;13.446;2023-11-21T08:20:28;18.80;46.40
76789;DHT22;65740;52.464;13.446;2023-11-21T08:22:53;18.80;46.40
76789;DHT22;65740;52.464;13.446;2023-11-21T08:25:20;18.80;46.50
76789;DHT22;65740;52.464;13.446;2023-11-21T08:27:46;18.80;46.40
76789;DHT22;65740;52.464;13.446;2023-11-21T08:30:12;18.80;46.30
76789;DHT22;65740;52.464;13.446;2023-11-21T08:32:39;18.80;46.40
76789;DHT22;65740;52.464;13.446;2023-11-21T08:35:07;18.80;46.30
76789;DHT22;65740;52.464;13.446;2023-11-21T08:37:33;18.80;46.20
76789;DHT22;65740;52.464;13.446;2023-11-21T08:40:03;18.80;46.20
76789;DHT22;65740;52.464;13.446;2023-11-21T08:42:29;18.90;46.20
76789;DHT22;65740;52.464;13.446;2023-11-21T08:44:56;18.90;46.10
76789;DHT22;65740;52.464;13.446;2023-11-21T08:47:23;18.90;46.00
76789;DHT22;65740;52.464;13.446;2023-11-21T08:49:50;19.10;45.90
76789;DHT22;65740;52.464;13.446;2023-11-21T08:52:21;19.20;46.00
76789;DHT22;65740;52.464;13.446;2023-11-21T08:54:50;19.30;46.10
76789;DHT22;65740;52.464;13.446;2023-11-21T08:57:24;19.50;45.60
76789;DHT22;65740;52.464;13.446;2023-11-21T08:59:50;19.60;44.90
76789;DHT22;65740;52.464;13.446;2023-11-21T09:02:25;19.70;45.00
76789;DHT22;65740;52.464;13.446;2023-11-21T09:04:51;19.80;44.90
76789;DHT22;65740;52.464;13.446;2023-11-21T09:07:20;19.90;44.80
76789;DHT22;65740;52.464;13.446;2023-11-21T09:09:49;19.90;44.60
76789;DHT22;65740;52.464;13.446;2023-11-21T09:12:16;20.00;44.60
76789;DHT22;65740;52.464;13.446;2023-11-21T09:14:43;20.10;44.50
76789;DHT22;65740;52.464;13.446;2023-11-21T09:17:10;20.20;44.50
76789;DHT22;65740;52.464;13.446;2023-11-21T09:19:37;20.20;44.30
76789;DHT22;65740;52.464;13.446;2023-11-21T09:22:03;20.30;44.40
76789;DHT22;65740;52.464;13.446;2023-11-21T09:24:31;20.30;44.30
76789;DHT22;65740;52.464;13.446;2023-11-21T09:26:56;20.40;44.20
76789;DHT22;65740;52.464;13.446;2023-11-21T09:29:22;20.40;44.20
76789;DHT22;65740;52.464;13.446;2023-11-21T09:31:48;20.50;44.20
76789;DHT22;65740;52.464;13.446;2023-11-21T09:34:15;20.50;44.00
76789;DHT22;65740;52.464;13.446;2023-11-21T09:36:40;20.50;43.90
76789;DHT22;65740;52.464;13.446;2023-11-21T09:39:06;20.60;43.90
76789;DHT22;65740;52.464;13.446;2023-11-21T09:41:43;20.60;43.90
76789;DHT22;65740;52.464;13.446;2023-11-21T09:44:13;20.60;43.80
76789;DHT22;65740;52.464;13.446;2023-11-21T09:46:40;20.60;43.80
76789;DHT22;65740;52.464;13.446;2023-11-21T09:49:09;20.50;43.90
76789;DHT22;65740;52.464;13.446;2023-11-21T09:51:40;20.50;44.00
76789;DHT22;65740;52.464;13.446;2023-11-21T09:54:11;20.50;44.20
76789;DHT22;65740;52.464;13.446;2023-11-21T09:56:38;20.40;44.20
76789;DHT22;65740;52.464;13.446;2023-11-21T09:59:05;20.40;44.40
76789;DHT22;65740;52.464;13.446;2023-11-21T10:01:33;20.30;44.50
76789;DHT22;65740;52.464;13.446;2023-11-21T10:04:01;20.20;44.50
76789;DHT22;65740;52.464;13.446;2023-11-21T10:06:27;20.10;44.70
76789;DHT22;65740;52.464;13.446;2023-11-21T10:08:54;20.10;45.10
76789;DHT22;65740;52.464;13.446;2023-11-21T10:11:25;20.10;44.90
76789;DHT22;65740;52.464;13.446;2023-11-21T10:13:54;20.00;45.00
76789;DHT22;65740;52.464;13.446;2023-11-21T10:16:26;20.00;45.00
76789;DHT22;65740;52.464;13.446;2023-11-21T10:18:53;20.00;45.10
76789;DHT22;65740;52.464;13.446;2023-11-21T10:21:21;19.90;45.80
76789;DHT22;65740;52.464;13.446;2023-11-21T10:23:47;19.90;45.20
76789;DHT22;65740;52.464;13.446;2023-11-21T10:26:13;20.00;45.40
76789;DHT22;65740;52.464;13.446;2023-11-21T10:28:54;20.00;45.60
76789;DHT22;65740;52.464;13.446;2023-11-21T10:31:21;20.00;45.70
76789;DHT22;65740;52.464;13.446;2023-11-21T10:33:46;20.10;45.90
76789;DHT22;65740;52.464;13.446;2023-11-21T10:36:12;20.20;45.50
76789;DHT22;65740;52.464;13.446;2023-11-21T10:38:48;20.30;45.40
76789;DHT22;65740;52.464;13.446;2023-11-21T10:41:18;20.40;45.20
76789;DHT22;65740;52.464;13.446;2023-11-21T10:43:43;20.50;45.10
76789;DHT22;65740;52.464;13.446;2023-11-21T10:46:09;20.60;45.00
76789;DHT22;65740;52.464;13.446;2023-11-21T10:48:35;20.70;45.00
76789;DHT22;65740;52.464;13.446;2023-11-21T10:51:07;20.80;45.00
76789;DHT22;65740;52.464;13.446;2023-11-21T10:53:39;20.90;45.00
76789;DHT22;65740;52.464;13.446;2023-11-21T10:56:08;20.90;44.90
76789;DHT22;65740;52.464;13.446;2023-11-21T10:58:37;21.00;44.90
76789;DHT22;65740;52.464;13.446;2023-11-21T11:01:06;21.10;44.80
76789;DHT22;65740;52.464;13.446;2023-11-21T11:03:32;21.10;44.70
76789;DHT22;65740;52.464;13.446;2023-11-21T11:06:02;21.20;44.60
76789;DHT22;65740;52.464;13.446;2023-11-21T11:08:29;21.30;44.60
76789;DHT22;65740;52.464;13.446;2023-11-21T11:10:55;21.30;44.50
76789;DHT22;65740;52.464;13.446;2023-11-21T11:13:21;21.30;44.40
76789;DHT22;65740;52.464;13.446;2023-11-21T11:15:48;21.40;44.20
76789;DHT22;65740;52.464;13.446;2023-11-21T11:18:15;21.40;44.30
76789;DHT22;65740;52.464;13.446;2023-11-21T11:20:43;21.50;44.10
76789;DHT22;65740;52.464;13.446;2023-11-21T11:23:45;21.50;44.10
76789;DHT22;65740;52.464;13.446;2023-11-21T11:26:36;21.50;44.00
76789;DHT22;65740;52.464;13.446;2023-11-21T11:32:16;21.60;43.80
76789;DHT22;65740;52.464;13.446;2023-11-21T11:35:07;21.70;43.80
76789;DHT22;65740;52.464;13.446;2023-11-21T11:37:35;21.70;43.70
76789;DHT22;65740;52.464;13.446;2023-11-21T11:40:06;21.70;43.60
76789;DHT22;65740;52.464;13.446;2023-11-21T11:42:32;21.80;43.70
76789;DHT22;65740;52.464;13.446;2023-11-21T11:44:58;21.70;43.60
76789;DHT22;65740;52.464;13.446;2023-11-21T11:47:27;21.70;43.60
76789;DHT22;65740;52.464;13.446;2023-11-21T11:49:59;21.70;43.70
76789;DHT22;65740;52.464;13.446;2023-11-21T11:52:35;21.60;43.70
76789;DHT22;65740;52.464;13.446;2023-11-21T11:55:06;21.60;43.90
76789;DHT22;65740;52.464;13.446;2023-11-21T11:57:33;21.50;44.70
76789;DHT22;65740;52.464;13.446;2023-11-21T12:00:19;21.40;44.00
76789;DHT22;65740;52.464;13.446;2023-11-21T12:02:47;21.30;44.10
76789;DHT22;65740;52.464;13.446;2023-11-21T12:05:15;21.30;44.30
76789;DHT22;65740;52.464;13.446;2023-11-21T12:07:52;21.20;44.50
76789;DHT22;65740;52.464;13.446;2023-11-21T12:10:28;21.10;44.60
76789;DHT22;65740;52.464;13.446;2023-11-21T12:12:58;21.00;44.50
76789;DHT22;65740;52.464;13.446;2023-11-21T12:15:25;21.00;44.70
76789;DHT22;65740;52.464;13.446;2023-11-21T12:17:51;20.90;44.70
76789;DHT22;65740;52.464;13.446;2023-11-21T12:20:24;20.90;44.80
76789;DHT22;65740;52.464;13.446;2023-11-21T12:22:55;20.90;44.90
76789;DHT22;65740;52.464;13.446;2023-11-21T12:25:25;20.80;44.90
76789;DHT22;65740;52.464;13.446;2023-11-21T12:27:55;20.80;45.60
76789;DHT22;65740;52.464;13.446;2023-11-21T12:30:23;20.80;45.00
76789;DHT22;65740;52.464;13.446;2023-11-21T12:32:53;20.90;45.00
76789;DHT22;65740;52.464;13.446;2023-11-21T12:35:23;21.00;45.00
76789;DHT22;65740;52.464;13.446;2023-11-21T12:37:50;21.10;44.90
76789;DHT22;65740;52.464;13.446;2023-11-21T12:40:16;21.20;45.00
76789;DHT22;65740;52.464;13.446;2023-11-21T12:42:46;21.30;45.20
76789;DHT22;65740;52.464;13.446;2023-11-21T12:47:47;21.50;45.30
76789;DHT22;65740;52.464;13.446;2023-11-21T12:50:14;21.50;45.20
76789;DHT22;65740;52.464;13.446;2023-11-21T12:52:46;21.60;45.00
76789;DHT22;65740;52.464;13.446;2023-11-21T12:55:21;21.60;45.00
76789;DHT22;65740;52.464;13.446;2023-11-21T12:57:55;21.70;45.00
76789;DHT22;65740;52.464;13.446;2023-11-21T13:00:45;21.70;45.00
76789;DHT22;65740;52.464;13.446;2023-11-21T13:03:12;21.80;45.10
76789;DHT22;65740;52.464;13.446;2023-11-21T13:05:42;21.90;45.30
76789;DHT22;65740;52.464;13.446;2023-11-21T13:08:11;21.90;45.40
76789;DHT22;65740;52.464;13.446;2023-11-21T13:10:40;21.90;45.30
76789;DHT22;65740;52.464;13.446;2023-11-21T13:13:09;22.00;45.40
76789;DHT22;65740;52.464;13.446;2023-11-21T13:16:01;22.00;45.50
76789;DHT22;65740;52.464;13.446;2023-11-21T13:18:30;22.00;45.50
76789;DHT22;65740;52.464;13.446;2023-11-21T13:21:01;22.10;45.50
76789;DHT22;65740;52.464;13.446;2023-11-21T13:23:28;22.10;45.40
76789;DHT22;65740;52.464;13.446;2023-11-21T13:25:55;22.10;45.20
76789;DHT22;65740;52.464;13.446;2023-11-21T13:28:21;22.10;45.10
76789;DHT22;65740;52.464;13.446;2023-11-21T13:30:49;22.10;45.10
76789;DHT22;65740;52.464;13.446;2023-11-21T13:33:18;22.10;45.00
76789;DHT22;65740;52.464;13.446;2023-11-21T13:35:47;22.20;45.10
76789;DHT22;65740;52.464;13.446;2023-11-21T13:38:15;22.20;44.90
76789;DHT22;65740;52.464;13.446;2023-11-21T13:40:53;22.20;44.90
76789;DHT22;65740;52.464;13.446;2023-11-21T13:43:21;22.20;44.90
76789;DHT22;65740;52.464;13.446;2023-11-21T13:45:49;22.20;44.90
76789;DHT22;65740;52.464;13.446;2023-11-21T13:48:21;22.20;44.80
76789;DHT22;65740;52.464;13.446;2023-11-21T13:50:53;22.20;44.90
76789;DHT22;65740;52.464;13.446;2023-11-21T13:53:36;22.20;44.60
76789;DHT22;65740;52.464;13.446;2023-11-21T13:56:04;22.20;44.60
76789;DHT22;65740;52.464;13.446;2023-11-21T13:58:30;22.20;44.40
76789;DHT22;65740;52.464;13.446;2023-11-21T14:01:12;22.20;44.40
76789;DHT22;65740;52.464;13.446;2023-11-21T14:03:59;22.20;44.50
76789;DHT22;65740;52.464;13.446;2023-11-21T14:06:48;22.20;44.50
76789;DHT22;65740;52.464;13.446;2023-11-21T14:09:15;22.20;44.40
76789;DHT22;65740;52.464;13.446;2023-11-21T14:11:54;22.30;45.20
76789;DHT22;65740;52.464;13.446;2023-11-21T14:14:23;22.30;44.50
76789;DHT22;65740;52.464;13.446;2023-11-21T14:16:50;22.30;44.40
76789;DHT22;65740;52.464;13.446;2023-11-21T14:19:16;22.30;44.20
76789;DHT22;65740;52.464;13.446;2023-11-21T14:21:43;22.30;44.20
76789;DHT22;65740;52.464;13.446;2023-11-21T14:24:09;22.40;44.20
76789;DHT22;65740;52.464;13.446;2023-11-21T14:26:35;22.40;44.10
76789;DHT22;65740;52.464;13.446;2023-11-21T14:29:01;22.40;44.70
76789;DHT22;65740;52.464;13.446;2023-11-21T14:31:28;22.50;44.00
76789;DHT22;65740;52.464;13.446;2023-11-21T14:33:56;22.50;44.00
76789;DHT22;65740;52.464;13.446;2023-11-21T14:36:22;22.40;43.90
76789;DHT22;65740;52.464;13.446;2023-11-21T14:38:49;22.40;43.70
76789;DHT22;65740;52.464;13.446;2023-11-21T14:41:15;22.40;44.10
76789;DHT22;65740;52.464;13.446;2023-11-21T14:43:41;22.30;43.90
76789;DHT22;65740;52.464;13.446;2023-11-21T14:46:08;22.20;44.00
76789;DHT22;65740;52.464;13.446;2023-11-21T14:48:36;22.20;44.00
76789;DHT22;65740;52.464;13.446;2023-11-21T14:51:22;22.10;44.20
76789;DHT22;65740;52.464;13.446;2023-11-21T14:53:53;22.10;44.30
76789;DHT22;65740;52.464;13.446;2023-11-21T14:56:22;22.00;44.40
76789;DHT22;65740;52.464;13.446;2023-11-21T14:59:01;21.90;44.40
76789;DHT22;65740;52.464;13.446;2023-11-21T15:01:38;21.80;44.60
76789;DHT22;65740;52.464;13.446;2023-11-21T15:04:21;21.80;44.80
76789;DHT22;65740;52.464;13.446;2023-11-21T15:07:04;21.70;44.90
76789;DHT22;65740;52.464;13.446;2023-11-21T15:09:30;21.70;45.00
76789;DHT22;65740;52.464;13.446;2023-11-21T15:11:59;21.60;45.00
76789;DHT22;65740;52.464;13.446;2023-11-21T15:14:36;21.50;45.00
76789;DHT22;65740;52.464;13.446;2023-11-21T15:17:02;21.60;45.00
76789;DHT22;65740;52.464;13.446;2023-11-21T15:19:29;21.70;45.00
76789;DHT22;65740;52.464;13.446;2023-11-21T15:21:57;21.70;44.70
76789;DHT22;65740;52.464;13.446;2023-11-21T15:24:23;21.80;44.60
76789;DHT22;65740;52.464;13.446;2023-11-21T15:26:50;21.90;44.40
76789;DHT22;65740;52.464;13.446;2023-11-21T15:29:16;22.00;44.30